sensor_id;sensor_type;location;lat;lon;timestamp;pressure;altitude;pressure_sealevel;temperature;humidity
72909;BME280;61051;62.624;17.950;2022-07-06T00:02:08;100804.22;;;14.43;62.65
72909;BME280;61051;62.624;17.950;2022-07-06T00:04:36;100804.58;;;14.44;63.24
72909;BME280;61051;62.624;17.950;2022-07-06T00:07:05;100805.52;;;14.40;63.48
72909;BME280;61051;62.624;17.950;2022-07-06T00:09:33;100807.55;;;14.37;63.84
72909;BME280;61051;62.624;17.950;2022-07-06T00:12:01;100807.00;;;14.21;63.61
72909;BME280;61051;62.624;17.950;2022-07-06T00:14:29;100807.01;;;14.19;64.30
72909;BME280;61051;62.624;17.950;2022-07-06T00:16:57;100807.70;;;14.20;63.84
72909;BME280;61051;62.624;17.950;2022-07-06T00:19:25;100808.26;;;14.00;64.78
72909;BME280;61051;62.624;17.950;2022-07-06T00:21:54;100808.98;;;13.99;65.38
72909;BME280;61051;62.624;17.950;2022-07-06T00:24:22;100808.29;;;13.78;65.34
72909;BME280;61051;62.624;17.950;2022-07-06T00:26:51;100807.25;;;14.09;64.80
72909;BME280;61051;62.624;17.950;2022-07-06T00:29:20;100805.71;;;14.02;64.88
72909;BME280;61051;62.624;17.950;2022-07-06T00:31:48;100806.71;;;13.87;65.00
72909;BME280;61051;62.624;17.950;2022-07-06T00:34:16;100807.29;;;13.78;65.97
72909;BME280;61051;62.624;17.950;2022-07-06T00:36:44;100805.88;;;13.54;66.01
72909;BME280;61051;62.624;17.950;2022-07-06T00:39:14;100806.11;;;13.72;66.14
72909;BME280;61051;62.624;17.950;2022-07-06T00:41:43;100805.29;;;13.70;66.24
72909;BME280;61051;62.624;17.950;2022-07-06T00:44:11;100806.77;;;13.58;66.34
72909;BME280;61051;62.624;17.950;2022-07-06T00:46:39;100808.94;;;13.53;67.59
72909;BME280;61051;62.624;17.950;2022-07-06T00:49:07;100809.83;;;13.44;66.54
72909;BME280;61051;62.624;17.950;2022-07-06T00:51:37;100810.72;;;13.49;67.35
72909;BME280;61051;62.624;17.950;2022-07-06T00:54:05;100814.07;;;13.53;68.06
72909;BME280;61051;62.624;17.950;2022-07-06T00:56:34;100814.48;;;13.52;67.45
72909;BME280;61051;62.624;17.950;2022-07-06T00:59:03;100815.41;;;13.47;68.50
72909;BME280;61051;62.624;17.950;2022-07-06T01:01:32;100818.98;;;13.55;68.67
72909;BME280;61051;62.624;17.950;2022-07-06T01:04:00;100819.26;;;13.51;68.38
72909;BME280;61051;62.624;17.950;2022-07-06T01:06:28;100821.00;;;13.58;67.41
72909;BME280;61051;62.624;17.950;2022-07-06T01:08:56;100820.76;;;13.68;67.99
72909;BME280;61051;62.624;17.950;2022-07-06T01:11:25;100819.49;;;13.81;66.81
72909;BME280;61051;62.624;17.950;2022-07-06T01:13:54;100817.74;;;13.81;64.92
72909;BME280;61051;62.624;17.950;2022-07-06T01:16:24;100817.35;;;13.99;64.73
72909;BME280;61051;62.624;17.950;2022-07-06T01:18:53;100819.10;;;14.20;63.52
72909;BME280;61051;62.624;17.950;2022-07-06T01:21:21;100818.69;;;14.12;63.05
72909;BME280;61051;62.624;17.950;2022-07-06T01:23:49;100823.75;;;14.15;63.64
72909;BME280;61051;62.624;17.950;2022-07-06T01:26:19;100825.65;;;14.11;63.90
72909;BME280;61051;62.624;17.950;2022-07-06T01:28:49;100825.72;;;14.07;62.30
72909;BME280;61051;62.624;17.950;2022-07-06T01:31:21;100825.37;;;14.17;64.89
72909;BME280;61051;62.624;17.950;2022-07-06T01:33:52;100826.79;;;14.15;64.29
72909;BME280;61051;62.624;17.950;2022-07-06T01:36:22;100826.94;;;14.13;62.94
72909;BME280;61051;62.624;17.950;2022-07-06T01:38:54;100825.76;;;14.06;62.86
72909;BME280;61051;62.624;17.950;2022-07-06T01:41:22;100825.78;;;14.00;62.43
72909;BME280;61051;62.624;17.950;2022-07-06T01:43:52;100826.61;;;14.12;62.37
72909;BME280;61051;62.624;17.950;2022-07-06T01:46:21;100826.82;;;14.13;62.43
72909;BME280;61051;62.624;17.950;2022-07-06T01:48:49;100827.60;;;14.03;61.93
72909;BME280;61051;62.624;17.950;2022-07-06T01:51:17;100829.25;;;13.94;61.57
72909;BME280;61051;62.624;17.950;2022-07-06T01:53:46;100829.74;;;14.03;62.21
72909;BME280;61051;62.624;17.950;2022-07-06T01:56:15;100830.21;;;14.03;61.97
72909;BME280;61051;62.624;17.950;2022-07-06T01:58:43;100828.04;;;14.08;61.64
72909;BME280;61051;62.624;17.950;2022-07-06T02:01:13;100830.84;;;13.95;61.39
72909;BME280;61051;62.624;17.950;2022-07-06T02:03:42;100831.87;;;14.06;62.62
72909;BME280;61051;62.624;17.950;2022-07-06T02:06:11;100831.73;;;13.98;62.16
72909;BME280;61051;62.624;17.950;2022-07-06T02:08:42;100833.15;;;13.95;62.64
72909;BME280;61051;62.624;17.950;2022-07-06T02:11:11;100834.22;;;13.89;62.60
72909;BME280;61051;62.624;17.950;2022-07-06T02:13:39;100831.12;;;14.00;62.88
72909;BME280;61051;62.624;17.950;2022-07-06T02:16:08;100830.52;;;13.99;62.17
72909;BME280;61051;62.624;17.950;2022-07-06T02:18:36;100834.25;;;14.00;62.39
72909;BME280;61051;62.624;17.950;2022-07-06T02:21:04;100834.49;;;14.00;62.55
72909;BME280;61051;62.624;17.950;2022-07-06T02:23:34;100834.56;;;14.00;62.26
72909;BME280;61051;62.624;17.950;2022-07-06T02:26:02;100834.69;;;14.14;62.34
72909;BME280;61051;62.624;17.950;2022-07-06T02:28:30;100834.40;;;14.09;62.28
72909;BME280;61051;62.624;17.950;2022-07-06T02:30:58;100834.70;;;14.07;62.04
72909;BME280;61051;62.624;17.950;2022-07-06T02:33:27;100832.80;;;14.06;61.71
72909;BME280;61051;62.624;17.950;2022-07-06T02:35:55;100832.60;;;14.13;61.50
72909;BME280;61051;62.624;17.950;2022-07-06T02:38:23;100832.74;;;14.19;61.42
72909;BME280;61051;62.624;17.950;2022-07-06T02:40:52;100837.72;;;14.22;62.58
72909;BME280;61051;62.624;17.950;2022-07-06T02:43:21;100838.70;;;14.25;61.14
72909;BME280;61051;62.624;17.950;2022-07-06T02:45:50;100836.61;;;14.26;62.00
72909;BME280;61051;62.624;17.950;2022-07-06T02:48:18;100832.38;;;14.02;61.17
72909;BME280;61051;62.624;17.950;2022-07-06T02:50:46;100829.63;;;14.09;61.55
72909;BME280;61051;62.624;17.950;2022-07-06T02:53:14;100824.69;;;14.19;60.55
72909;BME280;61051;62.624;17.950;2022-07-06T02:55:42;100822.05;;;14.26;60.46
72909;BME280;61051;62.624;17.950;2022-07-06T02:58:11;100824.21;;;14.15;60.49
72909;BME280;61051;62.624;17.950;2022-07-06T03:00:39;100827.05;;;14.21;60.54
72909;BME280;61051;62.624;17.950;2022-07-06T03:03:07;100836.05;;;14.32;61.31
72909;BME280;61051;62.624;17.950;2022-07-06T03:05:35;100839.11;;;14.39;60.72
72909;BME280;61051;62.624;17.950;2022-07-06T03:08:04;100842.64;;;14.46;60.05
72909;BME280;61051;62.624;17.950;2022-07-06T03:10:33;100838.87;;;14.42;60.39
72909;BME280;61051;62.624;17.950;2022-07-06T03:13:01;100839.09;;;14.32;60.19
72909;BME280;61051;62.624;17.950;2022-07-06T03:15:30;100839.52;;;14.37;59.40
72909;BME280;61051;62.624;17.950;2022-07-06T03:17:58;100841.01;;;14.36;60.59
72909;BME280;61051;62.624;17.950;2022-07-06T03:20:26;100838.77;;;14.35;59.33
72909;BME280;61051;62.624;17.950;2022-07-06T03:22:54;100839.90;;;14.28;58.79
72909;BME280;61051;62.624;17.950;2022-07-06T03:25:23;100837.27;;;14.20;58.33
72909;BME280;61051;62.624;17.950;2022-07-06T03:27:52;100839.80;;;14.31;58.54
72909;BME280;61051;62.624;17.950;2022-07-06T03:30:21;100840.03;;;14.21;59.14
72909;BME280;61051;62.624;17.950;2022-07-06T03:32:49;100839.93;;;14.23;58.83
72909;BME280;61051;62.624;17.950;2022-07-06T03:35:17;100842.74;;;14.25;59.62
72909;BME280;61051;62.624;17.950;2022-07-06T03:37:45;100843.49;;;14.27;58.67
72909;BME280;61051;62.624;17.950;2022-07-06T03:40:13;100843.79;;;14.31;59.04
72909;BME280;61051;62.624;17.950;2022-07-06T03:42:41;100844.40;;;14.21;56.98
72909;BME280;61051;62.624;17.950;2022-07-06T03:45:10;100844.18;;;14.25;57.83
72909;BME280;61051;62.624;17.950;2022-07-06T03:47:38;100848.58;;;14.35;57.94
72909;BME280;61051;62.624;17.950;2022-07-06T03:50:08;100852.37;;;14.24;58.27
72909;BME280;61051;62.624;17.950;2022-07-06T03:52:36;100854.26;;;14.30;58.12
72909;BME280;61051;62.624;17.950;2022-07-06T03:55:06;100855.19;;;14.27;57.12
72909;BME280;61051;62.624;17.950;2022-07-06T03:57:34;100851.93;;;14.30;57.48
72909;BME280;61051;62.624;17.950;2022-07-06T04:03:19;100858.82;;;14.37;57.95
72909;BME280;61051;62.624;17.950;2022-07-06T04:05:47;100859.93;;;14.48;57.72
72909;BME280;61051;62.624;17.950;2022-07-06T04:08:15;100860.01;;;14.33;57.49
72909;BME280;61051;62.624;17.950;2022-07-06T04:10:44;100862.18;;;14.55;56.88
72909;BME280;61051;62.624;17.950;2022-07-06T04:13:12;100862.59;;;14.46;56.54
72909;BME280;61051;62.624;17.950;2022-07-06T04:15:40;100867.09;;;14.57;56.13
72909;BME280;61051;62.624;17.950;2022-07-06T04:18:08;100866.35;;;14.50;56.62
72909;BME280;61051;62.624;17.950;2022-07-06T04:20:36;100867.07;;;14.33;56.36
72909;BME280;61051;62.624;17.950;2022-07-06T04:23:04;100863.92;;;14.46;56.23
72909;BME280;61051;62.624;17.950;2022-07-06T04:25:33;100861.36;;;14.37;56.62
72909;BME280;61051;62.624;17.950;2022-07-06T04:28:03;100865.79;;;14.31;55.42
72909;BME280;61051;62.624;17.950;2022-07-06T04:30:31;100869.10;;;14.37;56.34
72909;BME280;61051;62.624;17.950;2022-07-06T04:33:01;100871.93;;;14.30;56.03
72909;BME280;61051;62.624;17.950;2022-07-06T04:35:29;100873.55;;;14.47;56.46
72909;BME280;61051;62.624;17.950;2022-07-06T04:37:57;100875.39;;;14.39;56.52
72909;BME280;61051;62.624;17.950;2022-07-06T04:40:25;100875.77;;;14.44;56.68
72909;BME280;61051;62.624;17.950;2022-07-06T04:42:54;100873.83;;;14.42;56.75
72909;BME280;61051;62.624;17.950;2022-07-06T04:45:23;100875.41;;;14.54;56.20
72909;BME280;61051;62.624;17.950;2022-07-06T04:47:52;100876.22;;;14.47;54.86
72909;BME280;61051;62.624;17.950;2022-07-06T04:50:21;100878.78;;;14.55;54.85
72909;BME280;61051;62.624;17.950;2022-07-06T04:52:49;100880.58;;;14.54;54.94
72909;BME280;61051;62.624;17.950;2022-07-06T04:55:17;100883.56;;;14.58;54.56
72909;BME280;61051;62.624;17.950;2022-07-06T04:57:46;100884.49;;;14.42;55.33
72909;BME280;61051;62.624;17.950;2022-07-06T05:00:15;100879.83;;;14.62;54.66
72909;BME280;61051;62.624;17.950;2022-07-06T05:02:44;100884.04;;;14.74;54.14
72909;BME280;61051;62.624;17.950;2022-07-06T05:05:12;100879.65;;;14.56;52.22
72909;BME280;61051;62.624;17.950;2022-07-06T05:07:40;100881.15;;;14.54;51.92
72909;BME280;61051;62.624;17.950;2022-07-06T05:10:10;100885.37;;;14.58;53.45
72909;BME280;61051;62.624;17.950;2022-07-06T05:12:39;100882.88;;;14.44;52.57
72909;BME280;61051;62.624;17.950;2022-07-06T05:15:09;100887.33;;;14.49;51.30
72909;BME280;61051;62.624;17.950;2022-07-06T05:17:38;100890.13;;;14.46;51.60
72909;BME280;61051;62.624;17.950;2022-07-06T05:20:07;100889.65;;;14.46;51.99
72909;BME280;61051;62.624;17.950;2022-07-06T05:22:36;100889.12;;;14.22;51.50
72909;BME280;61051;62.624;17.950;2022-07-06T05:25:05;100891.71;;;14.30;51.27
72909;BME280;61051;62.624;17.950;2022-07-06T05:27:34;100892.01;;;14.45;51.67
72909;BME280;61051;62.624;17.950;2022-07-06T05:30:03;100893.63;;;14.35;51.86
72909;BME280;61051;62.624;17.950;2022-07-06T05:32:32;100894.29;;;14.32;50.69
72909;BME280;61051;62.624;17.950;2022-07-06T05:35:01;100891.58;;;14.23;51.94
72909;BME280;61051;62.624;17.950;2022-07-06T05:37:29;100894.50;;;14.33;51.91
72909;BME280;61051;62.624;17.950;2022-07-06T05:39:57;100896.63;;;14.29;52.17
72909;BME280;61051;62.624;17.950;2022-07-06T05:42:25;100897.54;;;14.36;52.34
72909;BME280;61051;62.624;17.950;2022-07-06T05:44:55;100902.76;;;14.25;52.96
72909;BME280;61051;62.624;17.950;2022-07-06T05:47:23;100901.84;;;14.18;52.09
72909;BME280;61051;62.624;17.950;2022-07-06T05:49:52;100902.69;;;14.25;53.86
72909;BME280;61051;62.624;17.950;2022-07-06T05:52:21;100901.08;;;14.25;55.10
72909;BME280;61051;62.624;17.950;2022-07-06T05:54:49;100902.17;;;14.28;55.61
72909;BME280;61051;62.624;17.950;2022-07-06T05:57:18;100904.29;;;13.93;56.13
72909;BME280;61051;62.624;17.950;2022-07-06T05:59:46;100903.18;;;13.66;58.92
72909;BME280;61051;62.624;17.950;2022-07-06T06:02:14;100903.39;;;13.64;61.04
72909;BME280;61051;62.624;17.950;2022-07-06T06:04:42;100902.50;;;13.62;62.55
72909;BME280;61051;62.624;17.950;2022-07-06T06:07:10;100894.34;;;13.59;63.77
72909;BME280;61051;62.624;17.950;2022-07-06T06:09:39;100892.72;;;13.58;64.09
72909;BME280;61051;62.624;17.950;2022-07-06T06:12:07;100888.70;;;13.65;65.39
72909;BME280;61051;62.624;17.950;2022-07-06T06:14:37;100890.27;;;13.68;65.22
72909;BME280;61051;62.624;17.950;2022-07-06T06:17:05;100884.77;;;13.66;67.35
72909;BME280;61051;62.624;17.950;2022-07-06T06:19:33;100883.93;;;13.83;65.73
72909;BME280;61051;62.624;17.950;2022-07-06T06:22:02;100886.27;;;13.92;65.82
72909;BME280;61051;62.624;17.950;2022-07-06T06:24:29;100883.93;;;13.98;67.14
72909;BME280;61051;62.624;17.950;2022-07-06T06:26:58;100883.12;;;14.40;68.66
72909;BME280;61051;62.624;17.950;2022-07-06T06:29:29;100884.05;;;14.58;66.51
72909;BME280;61051;62.624;17.950;2022-07-06T06:31:58;100882.43;;;14.70;67.09
72909;BME280;61051;62.624;17.950;2022-07-06T06:34:26;100885.80;;;14.78;67.04
72909;BME280;61051;62.624;17.950;2022-07-06T06:36:55;100884.80;;;15.06;64.55
72909;BME280;61051;62.624;17.950;2022-07-06T06:39:24;100882.25;;;15.19;62.33
72909;BME280;61051;62.624;17.950;2022-07-06T06:41:53;100883.92;;;15.23;65.01
72909;BME280;61051;62.624;17.950;2022-07-06T06:44:22;100881.23;;;15.29;62.91
72909;BME280;61051;62.624;17.950;2022-07-06T06:46:50;100884.39;;;15.35;62.18
72909;BME280;61051;62.624;17.950;2022-07-06T06:49:18;100881.17;;;15.14;63.46
72909;BME280;61051;62.624;17.950;2022-07-06T06:51:46;100882.43;;;15.21;61.81
72909;BME280;61051;62.624;17.950;2022-07-06T06:54:15;100882.47;;;15.43;60.43
72909;BME280;61051;62.624;17.950;2022-07-06T06:56:43;100881.81;;;15.42;58.73
72909;BME280;61051;62.624;17.950;2022-07-06T06:59:11;100876.22;;;15.50;55.79
72909;BME280;61051;62.624;17.950;2022-07-06T07:01:39;100873.43;;;15.89;57.23
72909;BME280;61051;62.624;17.950;2022-07-06T07:04:07;100873.11;;;15.76;57.75
72909;BME280;61051;62.624;17.950;2022-07-06T07:06:35;100869.76;;;15.88;59.34
72909;BME280;61051;62.624;17.950;2022-07-06T07:09:03;100868.08;;;16.11;54.80
72909;BME280;61051;62.624;17.950;2022-07-06T07:11:32;100866.98;;;16.12;54.55
72909;BME280;61051;62.624;17.950;2022-07-06T07:14:00;100868.60;;;16.38;53.92
72909;BME280;61051;62.624;17.950;2022-07-06T07:16:28;100865.96;;;16.32;54.01
72909;BME280;61051;62.624;17.950;2022-07-06T07:18:56;100868.89;;;16.38;56.11
72909;BME280;61051;62.624;17.950;2022-07-06T07:21:24;100871.86;;;16.46;55.23
72909;BME280;61051;62.624;17.950;2022-07-06T07:23:53;100866.73;;;16.36;56.98
72909;BME280;61051;62.624;17.950;2022-07-06T07:26:22;100867.70;;;16.50;57.06
72909;BME280;61051;62.624;17.950;2022-07-06T07:28:50;100865.69;;;16.54;55.40
72909;BME280;61051;62.624;17.950;2022-07-06T07:31:18;100866.02;;;16.39;57.25
72909;BME280;61051;62.624;17.950;2022-07-06T07:33:46;100862.87;;;16.40;52.44
72909;BME280;61051;62.624;17.950;2022-07-06T07:36:14;100863.60;;;16.19;56.20
72909;BME280;61051;62.624;17.950;2022-07-06T07:38:43;100864.38;;;16.19;54.61
72909;BME280;61051;62.624;17.950;2022-07-06T07:41:11;100862.46;;;16.02;52.68
72909;BME280;61051;62.624;17.950;2022-07-06T07:43:39;100861.39;;;15.89;53.09
72909;BME280;61051;62.624;17.950;2022-07-06T07:46:07;100863.91;;;15.67;50.63
72909;BME280;61051;62.624;17.950;2022-07-06T07:48:35;100866.79;;;15.67;52.73
72909;BME280;61051;62.624;17.950;2022-07-06T07:51:03;100865.94;;;16.11;57.65
72909;BME280;61051;62.624;17.950;2022-07-06T07:53:31;100872.04;;;16.91;51.45
72909;BME280;61051;62.624;17.950;2022-07-06T07:55:59;100866.96;;;17.78;50.45
72909;BME280;61051;62.624;17.950;2022-07-06T07:58:28;100861.48;;;18.19;49.38
72909;BME280;61051;62.624;17.950;2022-07-06T08:00:56;100859.24;;;18.39;45.02
72909;BME280;61051;62.624;17.950;2022-07-06T08:03:24;100857.13;;;18.38;44.56
72909;BME280;61051;62.624;17.950;2022-07-06T08:05:52;100848.85;;;18.27;43.02
72909;BME280;61051;62.624;17.950;2022-07-06T08:08:22;100853.03;;;18.50;45.26
72909;BME280;61051;62.624;17.950;2022-07-06T08:10:50;100851.96;;;18.65;46.11
72909;BME280;61051;62.624;17.950;2022-07-06T08:13:18;100844.19;;;18.87;41.33
72909;BME280;61051;62.624;17.950;2022-07-06T08:15:46;100847.53;;;19.30;43.90
72909;BME280;61051;62.624;17.950;2022-07-06T08:18:14;100847.71;;;19.50;44.41
72909;BME280;61051;62.624;17.950;2022-07-06T08:20:42;100846.29;;;19.37;41.20
72909;BME280;61051;62.624;17.950;2022-07-06T08:23:10;100845.24;;;19.49;40.90
72909;BME280;61051;62.624;17.950;2022-07-06T08:25:38;100843.32;;;19.24;42.65
72909;BME280;61051;62.624;17.950;2022-07-06T08:28:06;100840.49;;;19.18;41.55
72909;BME280;61051;62.624;17.950;2022-07-06T08:30:35;100836.94;;;19.16;42.99
72909;BME280;61051;62.624;17.950;2022-07-06T08:33:03;100834.29;;;18.91;43.05
72909;BME280;61051;62.624;17.950;2022-07-06T08:35:31;100834.95;;;18.85;40.47
72909;BME280;61051;62.624;17.950;2022-07-06T08:37:59;100833.82;;;18.91;40.75
72909;BME280;61051;62.624;17.950;2022-07-06T08:40:32;100839.73;;;19.37;45.21
72909;BME280;61051;62.624;17.950;2022-07-06T08:43:01;100838.97;;;19.73;39.52
72909;BME280;61051;62.624;17.950;2022-07-06T08:45:30;100838.80;;;20.00;37.49
72909;BME280;61051;62.624;17.950;2022-07-06T08:48:05;100838.47;;;20.21;39.13
72909;BME280;61051;62.624;17.950;2022-07-06T08:50:33;100837.27;;;20.31;42.21
72909;BME280;61051;62.624;17.950;2022-07-06T08:53:03;100838.88;;;20.57;40.95
72909;BME280;61051;62.624;17.950;2022-07-06T08:55:33;100843.68;;;20.89;38.37
72909;BME280;61051;62.624;17.950;2022-07-06T08:58:01;100843.07;;;20.81;37.18
72909;BME280;61051;62.624;17.950;2022-07-06T09:00:30;100840.21;;;20.24;37.14
72909;BME280;61051;62.624;17.950;2022-07-06T09:03:01;100837.17;;;19.63;39.04
72909;BME280;61051;62.624;17.950;2022-07-06T09:05:31;100834.92;;;19.86;36.68
72909;BME280;61051;62.624;17.950;2022-07-06T09:08:02;100837.44;;;19.52;39.10
72909;BME280;61051;62.624;17.950;2022-07-06T09:10:30;100834.27;;;19.18;38.57
72909;BME280;61051;62.624;17.950;2022-07-06T09:13:03;100830.62;;;19.24;37.15
72909;BME280;61051;62.624;17.950;2022-07-06T09:15:33;100824.20;;;19.61;37.45
72909;BME280;61051;62.624;17.950;2022-07-06T09:18:01;100821.43;;;19.95;37.74
72909;BME280;61051;62.624;17.950;2022-07-06T09:20:31;100821.63;;;19.97;37.87
72909;BME280;61051;62.624;17.950;2022-07-06T09:23:00;100823.78;;;19.74;39.83
72909;BME280;61051;62.624;17.950;2022-07-06T09:25:29;100821.37;;;20.05;37.26
72909;BME280;61051;62.624;17.950;2022-07-06T09:27:58;100818.69;;;20.08;37.43
72909;BME280;61051;62.624;17.950;2022-07-06T09:30:28;100812.43;;;20.45;38.67
72909;BME280;61051;62.624;17.950;2022-07-06T09:32:58;100813.73;;;20.77;34.10
72909;BME280;61051;62.624;17.950;2022-07-06T09:35:29;100805.24;;;20.70;35.21
72909;BME280;61051;62.624;17.950;2022-07-06T09:38:00;100806.93;;;20.51;37.63
72909;BME280;61051;62.624;17.950;2022-07-06T09:40:31;100807.14;;;19.95;37.88
72909;BME280;61051;62.624;17.950;2022-07-06T09:43:10;100799.81;;;19.92;39.80
72909;BME280;61051;62.624;17.950;2022-07-06T09:45:40;100799.22;;;20.58;37.05
72909;BME280;61051;62.624;17.950;2022-07-06T09:48:13;100795.35;;;20.35;34.22
72909;BME280;61051;62.624;17.950;2022-07-06T09:50:42;100795.07;;;20.29;34.87
72909;BME280;61051;62.624;17.950;2022-07-06T09:53:11;100793.60;;;21.02;33.15
72909;BME280;61051;62.624;17.950;2022-07-06T09:55:44;100790.40;;;21.57;34.75
72909;BME280;61051;62.624;17.950;2022-07-06T09:58:12;100786.68;;;21.67;35.86
72909;BME280;61051;62.624;17.950;2022-07-06T10:03:18;100789.82;;;22.19;31.56
72909;BME280;61051;62.624;17.950;2022-07-06T10:05:47;100787.16;;;22.79;30.76
72909;BME280;61051;62.624;17.950;2022-07-06T10:08:17;100783.27;;;22.48;30.89
72909;BME280;61051;62.624;17.950;2022-07-06T10:10:46;100780.06;;;23.02;30.83
72909;BME280;61051;62.624;17.950;2022-07-06T10:13:20;100779.98;;;22.54;32.18
72909;BME280;61051;62.624;17.950;2022-07-06T10:15:50;100784.27;;;22.04;31.32
72909;BME280;61051;62.624;17.950;2022-07-06T10:18:19;100786.62;;;21.33;33.25
72909;BME280;61051;62.624;17.950;2022-07-06T10:20:49;100786.68;;;20.46;32.70
72909;BME280;61051;62.624;17.950;2022-07-06T10:23:20;100786.39;;;20.28;35.37
72909;BME280;61051;62.624;17.950;2022-07-06T10:25:51;100782.99;;;20.04;35.25
72909;BME280;61051;62.624;17.950;2022-07-06T10:28:20;100787.78;;;19.72;36.66
72909;BME280;61051;62.624;17.950;2022-07-06T10:30:49;100783.63;;;19.75;37.94
72909;BME280;61051;62.624;17.950;2022-07-06T10:33:18;100779.74;;;19.28;37.36
72909;BME280;61051;62.624;17.950;2022-07-06T10:35:48;100780.14;;;19.03;37.80
72909;BME280;61051;62.624;17.950;2022-07-06T10:38:17;100779.41;;;19.03;37.75
72909;BME280;61051;62.624;17.950;2022-07-06T10:40:45;100776.31;;;19.05;38.20
72909;BME280;61051;62.624;17.950;2022-07-06T10:43:13;100777.21;;;18.94;37.57
72909;BME280;61051;62.624;17.950;2022-07-06T10:45:57;100778.69;;;19.02;38.12
72909;BME280;61051;62.624;17.950;2022-07-06T10:48:34;100779.15;;;18.75;38.63
72909;BME280;61051;62.624;17.950;2022-07-06T10:51:02;100780.57;;;19.18;37.44
72909;BME280;61051;62.624;17.950;2022-07-06T10:53:33;100777.11;;;19.06;37.78
72909;BME280;61051;62.624;17.950;2022-07-06T10:56:04;100775.20;;;19.33;39.45
72909;BME280;61051;62.624;17.950;2022-07-06T10:58:41;100775.44;;;19.71;36.31
72909;BME280;61051;62.624;17.950;2022-07-06T11:01:14;100775.27;;;20.20;35.22
72909;BME280;61051;62.624;17.950;2022-07-06T11:03:45;100770.80;;;20.19;33.78
72909;BME280;61051;62.624;17.950;2022-07-06T11:06:15;100768.89;;;20.45;36.08
72909;BME280;61051;62.624;17.950;2022-07-06T11:08:48;100769.02;;;20.54;34.71
72909;BME280;61051;62.624;17.950;2022-07-06T11:11:20;100762.98;;;20.77;35.97
72909;BME280;61051;62.624;17.950;2022-07-06T11:13:51;100759.09;;;21.87;34.26
72909;BME280;61051;62.624;17.950;2022-07-06T11:16:21;100761.99;;;21.57;32.25
72909;BME280;61051;62.624;17.950;2022-07-06T11:19:00;100761.98;;;21.42;34.97
72909;BME280;61051;62.624;17.950;2022-07-06T11:21:34;100756.46;;;21.50;34.03
72909;BME280;61051;62.624;17.950;2022-07-06T11:24:04;100756.50;;;21.11;34.14
72909;BME280;61051;62.624;17.950;2022-07-06T11:26:33;100755.12;;;20.87;33.56
72909;BME280;61051;62.624;17.950;2022-07-06T11:29:04;100753.75;;;20.45;35.48
72909;BME280;61051;62.624;17.950;2022-07-06T11:31:35;100751.62;;;20.38;37.42
72909;BME280;61051;62.624;17.950;2022-07-06T11:34:05;100747.06;;;20.65;34.13
72909;BME280;61051;62.624;17.950;2022-07-06T11:36:34;100738.86;;;21.65;33.46
72909;BME280;61051;62.624;17.950;2022-07-06T11:39:04;100738.94;;;22.36;32.60
72909;BME280;61051;62.624;17.950;2022-07-06T11:41:33;100741.57;;;21.82;33.67
72909;BME280;61051;62.624;17.950;2022-07-06T11:44:04;100738.13;;;21.67;32.82
72909;BME280;61051;62.624;17.950;2022-07-06T11:46:34;100735.23;;;23.64;32.07
72909;BME280;61051;62.624;17.950;2022-07-06T11:49:04;100738.29;;;23.55;29.74
72909;BME280;61051;62.624;17.950;2022-07-06T11:51:35;100734.43;;;21.98;33.01
72909;BME280;61051;62.624;17.950;2022-07-06T11:54:09;100738.34;;;21.04;33.85
72909;BME280;61051;62.624;17.950;2022-07-06T11:56:37;100736.88;;;20.89;37.35
72909;BME280;61051;62.624;17.950;2022-07-06T11:59:07;100736.89;;;20.53;38.46
72909;BME280;61051;62.624;17.950;2022-07-06T12:01:37;100740.24;;;20.71;38.25
72909;BME280;61051;62.624;17.950;2022-07-06T12:04:05;100739.95;;;21.11;36.42
72909;BME280;61051;62.624;17.950;2022-07-06T12:06:33;100728.58;;;22.08;32.90
72909;BME280;61051;62.624;17.950;2022-07-06T12:09:03;100725.19;;;24.98;30.59
72909;BME280;61051;62.624;17.950;2022-07-06T12:11:33;100713.91;;;28.20;25.34
72909;BME280;61051;62.624;17.950;2022-07-06T12:14:12;100711.73;;;30.05;23.45
72909;BME280;61051;62.624;17.950;2022-07-06T12:16:41;100710.68;;;30.28;20.38
72909;BME280;61051;62.624;17.950;2022-07-06T12:19:10;100708.45;;;29.78;20.58
72909;BME280;61051;62.624;17.950;2022-07-06T12:21:44;100709.12;;;29.45;20.64
72909;BME280;61051;62.624;17.950;2022-07-06T12:24:18;100705.74;;;30.75;19.78
72909;BME280;61051;62.624;17.950;2022-07-06T12:26:49;100699.03;;;31.36;17.31
72909;BME280;61051;62.624;17.950;2022-07-06T12:29:19;100695.87;;;32.03;17.57
72909;BME280;61051;62.624;17.950;2022-07-06T12:31:49;100691.04;;;32.49;16.93
72909;BME280;61051;62.624;17.950;2022-07-06T12:34:21;100690.53;;;30.65;19.22
72909;BME280;61051;62.624;17.950;2022-07-06T12:36:53;100685.02;;;30.36;19.49
72909;BME280;61051;62.624;17.950;2022-07-06T12:39:23;100684.07;;;27.52;22.46
72909;BME280;61051;62.624;17.950;2022-07-06T12:41:54;100687.16;;;25.43;25.23
72909;BME280;61051;62.624;17.950;2022-07-06T12:44:24;100694.72;;;24.08;28.40
72909;BME280;61051;62.624;17.950;2022-07-06T12:47:02;100697.01;;;22.49;30.72
72909;BME280;61051;62.624;17.950;2022-07-06T12:49:32;100700.10;;;21.76;31.07
72909;BME280;61051;62.624;17.950;2022-07-06T12:52:08;100709.72;;;22.45;31.65
72909;BME280;61051;62.624;17.950;2022-07-06T12:54:42;100715.14;;;25.31;28.65
72909;BME280;61051;62.624;17.950;2022-07-06T12:57:12;100699.41;;;28.28;26.14